sensor_id;sensor_type;location;lat;lon;timestamp;P1;durP1;ratioP1;P2;durP2;ratioP2
29824;SDS011;16713;52.916;12.834;2022-07-29T00:01:48;9.50;;;4.60;;
29824;SDS011;16713;52.916;12.834;2022-07-29T00:04:15;9.95;;;3.78;;
29824;SDS011;16713;52.916;12.834;2022-07-29T00:06:42;9.77;;;4.90;;
29824;SDS011;16713;52.916;12.834;2022-07-29T00:09:08;8.02;;;4.20;;
29824;SDS011;16713;52.916;12.834;2022-07-29T00:11:35;7.97;;;3.28;;
29824;SDS011;16713;52.916;12.834;2022-07-29T00:14:02;7.05;;;3.13;;
29824;SDS011;16713;52.916;12.834;2022-07-29T00:16:28;6.88;;;3.42;;
29824;SDS011;16713;52.916;12.834;2022-07-29T00:18:55;7.70;;;2.97;;
29824;SDS011;16713;52.916;12.834;2022-07-29T00:21:26;6.47;;;3.20;;
29824;SDS011;16713;52.916;12.834;2022-07-29T00:23:53;8.90;;;4.07;;
29824;SDS011;16713;52.916;12.834;2022-07-29T00:26:20;8.77;;;3.85;;
29824;SDS011;16713;52.916;12.834;2022-07-29T00:28:46;5.10;;;3.70;;
29824;SDS011;16713;52.916;12.834;2022-07-29T00:31:13;7.15;;;3.20;;
29824;SDS011;16713;52.916;12.834;2022-07-29T00:33:39;7.22;;;3.42;;
29824;SDS011;16713;52.916;12.834;2022-07-29T00:36:06;8.02;;;3.33;;
29824;SDS011;16713;52.916;12.834;2022-07-29T00:38:32;7.82;;;3.45;;
29824;SDS011;16713;52.916;12.834;2022-07-29T00:40:59;7.60;;;3.40;;
29824;SDS011;16713;52.916;12.834;2022-07-29T00:43:25;8.30;;;5.65;;
29824;SDS011;16713;52.916;12.834;2022-07-29T00:45:52;8.10;;;4.18;;
29824;SDS011;16713;52.916;12.834;2022-07-29T00:48:18;7.90;;;3.42;;
29824;SDS011;16713;52.916;12.834;2022-07-29T00:50:45;7.07;;;3.03;;
29824;SDS011;16713;52.916;12.834;2022-07-29T00:53:11;12.52;;;3.90;;
29824;SDS011;16713;52.916;12.834;2022-07-29T00:55:38;7.85;;;4.07;;
29824;SDS011;16713;52.916;12.834;2022-07-29T00:58:05;7.28;;;3.47;;
29824;SDS011;16713;52.916;12.834;2022-07-29T01:00:32;8.80;;;3.50;;
29824;SDS011;16713;52.916;12.834;2022-07-29T01:02:59;8.60;;;3.80;;
29824;SDS011;16713;52.916;12.834;2022-07-29T01:05:27;10.27;;;3.55;;
29824;SDS011;16713;52.916;12.834;2022-07-29T01:08:15;5.20;;;3.50;;
29824;SDS011;16713;52.916;12.834;2022-07-29T01:10:42;10.23;;;4.07;;
29824;SDS011;16713;52.916;12.834;2022-07-29T01:13:10;10.15;;;3.60;;
29824;SDS011;16713;52.916;12.834;2022-07-29T01:15:40;8.60;;;4.22;;
29824;SDS011;16713;52.916;12.834;2022-07-29T01:18:19;13.32;;;4.28;;
29824;SDS011;16713;52.916;12.834;2022-07-29T01:21:38;8.10;;;3.63;;
29824;SDS011;16713;52.916;12.834;2022-07-29T01:29:16;8.30;;;4.35;;
29824;SDS011;16713;52.916;12.834;2022-07-29T01:32:04;6.57;;;3.63;;
29824;SDS011;16713;52.916;12.834;2022-07-29T01:37:57;11.27;;;4.60;;
29824;SDS011;16713;52.916;12.834;2022-07-29T01:40:49;8.93;;;4.22;;
29824;SDS011;16713;52.916;12.834;2022-07-29T01:43:20;10.77;;;4.35;;
29824;SDS011;16713;52.916;12.834;2022-07-29T01:45:53;7.65;;;3.85;;
29824;SDS011;16713;52.916;12.834;2022-07-29T01:48:31;7.70;;;4.30;;
29824;SDS011;16713;52.916;12.834;2022-07-29T01:57:06;6.78;;;3.88;;
29824;SDS011;16713;52.916;12.834;2022-07-29T01:59:35;9.52;;;4.10;;
29824;SDS011;16713;52.916;12.834;2022-07-29T02:02:04;12.32;;;4.22;;
29824;SDS011;16713;52.916;12.834;2022-07-29T02:04:35;8.30;;;4.13;;
29824;SDS011;16713;52.916;12.834;2022-07-29T02:07:06;8.93;;;3.75;;
29824;SDS011;16713;52.916;12.834;2022-07-29T02:09:36;9.13;;;4.35;;
29824;SDS011;16713;52.916;12.834;2022-07-29T02:12:06;10.13;;;5.70;;
29824;SDS011;16713;52.916;12.834;2022-07-29T02:14:36;7.38;;;3.85;;
29824;SDS011;16713;52.916;12.834;2022-07-29T02:17:06;10.95;;;4.25;;
29824;SDS011;16713;52.916;12.834;2022-07-29T02:19:34;7.88;;;4.03;;
29824;SDS011;16713;52.916;12.834;2022-07-29T02:22:03;9.75;;;3.95;;
29824;SDS011;16713;52.916;12.834;2022-07-29T02:24:32;11.25;;;4.90;;
29824;SDS011;16713;52.916;12.834;2022-07-29T02:27:01;11.25;;;4.43;;
29824;SDS011;16713;52.916;12.834;2022-07-29T02:29:29;12.43;;;4.25;;
29824;SDS011;16713;52.916;12.834;2022-07-29T02:31:58;7.53;;;3.50;;
29824;SDS011;16713;52.916;12.834;2022-07-29T02:34:26;7.38;;;3.38;;
29824;SDS011;16713;52.916;12.834;2022-07-29T02:36:54;10.65;;;4.30;;
29824;SDS011;16713;52.916;12.834;2022-07-29T02:39:22;10.55;;;3.97;;
29824;SDS011;16713;52.916;12.834;2022-07-29T02:41:52;8.13;;;3.85;;
29824;SDS011;16713;52.916;12.834;2022-07-29T02:46:52;10.07;;;5.10;;
29824;SDS011;16713;52.916;12.834;2022-07-29T02:51:54;6.85;;;3.80;;
29824;SDS011;16713;52.916;12.834;2022-07-29T02:57:31;8.20;;;3.78;;
29824;SDS011;16713;52.916;12.834;2022-07-29T03:00:20;4.75;;;3.67;;
29824;SDS011;16713;52.916;12.834;2022-07-29T03:02:49;8.38;;;4.18;;
29824;SDS011;16713;52.916;12.834;2022-07-29T03:05:19;9.55;;;4.95;;
29824;SDS011;16713;52.916;12.834;2022-07-29T03:07:54;8.30;;;4.10;;
29824;SDS011;16713;52.916;12.834;2022-07-29T03:10:25;11.35;;;4.15;;
29824;SDS011;16713;52.916;12.834;2022-07-29T03:12:52;7.68;;;4.32;;
29824;SDS011;16713;52.916;12.834;2022-07-29T03:15:21;6.10;;;4.40;;
29824;SDS011;16713;52.916;12.834;2022-07-29T03:17:50;10.80;;;3.92;;
29824;SDS011;16713;52.916;12.834;2022-07-29T03:20:17;6.25;;;3.30;;
29824;SDS011;16713;52.916;12.834;2022-07-29T03:22:44;9.93;;;3.92;;
29824;SDS011;16713;52.916;12.834;2022-07-29T03:25:15;7.03;;;3.60;;
29824;SDS011;16713;52.916;12.834;2022-07-29T03:27:42;8.80;;;3.88;;
29824;SDS011;16713;52.916;12.834;2022-07-29T03:30:10;4.38;;;3.70;;
29824;SDS011;16713;52.916;12.834;2022-07-29T03:32:47;9.63;;;3.70;;
29824;SDS011;16713;52.916;12.834;2022-07-29T03:35:17;7.72;;;5.07;;
29824;SDS011;16713;52.916;12.834;2022-07-29T03:37:44;6.22;;;4.35;;
29824;SDS011;16713;52.916;12.834;2022-07-29T03:40:12;11.63;;;3.58;;
29824;SDS011;16713;52.916;12.834;2022-07-29T03:42:59;7.78;;;3.47;;
29824;SDS011;16713;52.916;12.834;2022-07-29T03:45:28;6.03;;;3.33;;
29824;SDS011;16713;52.916;12.834;2022-07-29T03:47:59;5.15;;;3.20;;
29824;SDS011;16713;52.916;12.834;2022-07-29T03:50:28;7.55;;;3.28;;
29824;SDS011;16713;52.916;12.834;2022-07-29T03:52:57;8.43;;;3.40;;
29824;SDS011;16713;52.916;12.834;2022-07-29T03:55:24;8.30;;;3.55;;
29824;SDS011;16713;52.916;12.834;2022-07-29T03:57:51;17.00;;;3.78;;
29824;SDS011;16713;52.916;12.834;2022-07-29T04:00:18;7.95;;;3.30;;
29824;SDS011;16713;52.916;12.834;2022-07-29T04:02:45;7.00;;;3.22;;
29824;SDS011;16713;52.916;12.834;2022-07-29T04:05:15;7.88;;;3.38;;
29824;SDS011;16713;52.916;12.834;2022-07-29T04:07:45;5.28;;;3.42;;
29824;SDS011;16713;52.916;12.834;2022-07-29T04:10:14;10.20;;;3.85;;
29824;SDS011;16713;52.916;12.834;2022-07-29T04:12:57;8.32;;;3.72;;
29824;SDS011;16713;52.916;12.834;2022-07-29T04:15:25;7.35;;;3.30;;
29824;SDS011;16713;52.916;12.834;2022-07-29T04:17:56;7.00;;;3.30;;
29824;SDS011;16713;52.916;12.834;2022-07-29T04:20:23;6.45;;;3.47;;
29824;SDS011;16713;52.916;12.834;2022-07-29T04:22:50;6.95;;;3.30;;
29824;SDS011;16713;52.916;12.834;2022-07-29T04:25:16;5.82;;;2.97;;
29824;SDS011;16713;52.916;12.834;2022-07-29T04:27:43;4.38;;;3.42;;
29824;SDS011;16713;52.916;12.834;2022-07-29T04:30:26;8.23;;;3.67;;
29824;SDS011;16713;52.916;12.834;2022-07-29T04:32:53;7.22;;;3.22;;
29824;SDS011;16713;52.916;12.834;2022-07-29T04:35:19;8.18;;;3.33;;
29824;SDS011;16713;52.916;12.834;2022-07-29T04:37:46;10.20;;;3.63;;
29824;SDS011;16713;52.916;12.834;2022-07-29T04:40:13;9.00;;;3.63;;
29824;SDS011;16713;52.916;12.834;2022-07-29T04:42:40;6.30;;;3.35;;
29824;SDS011;16713;52.916;12.834;2022-07-29T04:45:12;9.35;;;3.58;;
29824;SDS011;16713;52.916;12.834;2022-07-29T04:47:39;5.80;;;3.10;;
29824;SDS011;16713;52.916;12.834;2022-07-29T04:50:06;7.22;;;3.10;;
29824;SDS011;16713;52.916;12.834;2022-07-29T04:52:35;13.45;;;3.97;;
29824;SDS011;16713;52.916;12.834;2022-07-29T04:55:01;5.50;;;3.13;;
29824;SDS011;16713;52.916;12.834;2022-07-29T04:57:29;5.53;;;3.42;;
29824;SDS011;16713;52.916;12.834;2022-07-29T04:59:55;9.05;;;3.70;;
29824;SDS011;16713;52.916;12.834;2022-07-29T05:02:22;5.53;;;3.22;;
29824;SDS011;16713;52.916;12.834;2022-07-29T05:04:49;4.03;;;3.08;;
29824;SDS011;16713;52.916;12.834;2022-07-29T05:07:15;5.95;;;3.03;;
29824;SDS011;16713;52.916;12.834;2022-07-29T05:09:42;5.72;;;3.97;;
29824;SDS011;16713;52.916;12.834;2022-07-29T05:12:08;6.80;;;2.88;;
29824;SDS011;16713;52.916;12.834;2022-07-29T05:14:35;8.55;;;3.63;;
29824;SDS011;16713;52.916;12.834;2022-07-29T05:17:02;8.35;;;3.47;;
29824;SDS011;16713;52.916;12.834;2022-07-29T05:19:28;4.60;;;2.97;;
29824;SDS011;16713;52.916;12.834;2022-07-29T05:21:55;6.15;;;2.75;;
29824;SDS011;16713;52.916;12.834;2022-07-29T05:24:21;6.85;;;3.22;;
29824;SDS011;16713;52.916;12.834;2022-07-29T05:26:48;5.15;;;3.50;;
29824;SDS011;16713;52.916;12.834;2022-07-29T05:29:14;10.68;;;3.67;;
29824;SDS011;16713;52.916;12.834;2022-07-29T05:32:01;7.97;;;4.30;;
29824;SDS011;16713;52.916;12.834;2022-07-29T05:34:30;6.50;;;3.38;;
29824;SDS011;16713;52.916;12.834;2022-07-29T05:36:57;5.60;;;3.42;;
29824;SDS011;16713;52.916;12.834;2022-07-29T05:39:23;9.27;;;3.38;;
29824;SDS011;16713;52.916;12.834;2022-07-29T05:42:10;3.85;;;2.95;;
29824;SDS011;16713;52.916;12.834;2022-07-29T05:44:37;5.68;;;3.30;;
29824;SDS011;16713;52.916;12.834;2022-07-29T05:47:07;4.60;;;3.08;;
29824;SDS011;16713;52.916;12.834;2022-07-29T05:49:33;8.45;;;3.53;;
29824;SDS011;16713;52.916;12.834;2022-07-29T05:52:00;5.75;;;3.10;;
29824;SDS011;16713;52.916;12.834;2022-07-29T05:54:26;6.63;;;3.05;;
29824;SDS011;16713;52.916;12.834;2022-07-29T05:56:53;8.52;;;3.25;;
29824;SDS011;16713;52.916;12.834;2022-07-29T05:59:19;4.90;;;2.83;;
29824;SDS011;16713;52.916;12.834;2022-07-29T06:01:46;8.88;;;3.30;;
29824;SDS011;16713;52.916;12.834;2022-07-29T06:04:12;9.13;;;2.83;;
29824;SDS011;16713;52.916;12.834;2022-07-29T06:06:40;10.32;;;3.35;;
29824;SDS011;16713;52.916;12.834;2022-07-29T06:09:06;5.55;;;2.67;;
29824;SDS011;16713;52.916;12.834;2022-07-29T06:11:37;9.38;;;3.47;;
29824;SDS011;16713;52.916;12.834;2022-07-29T06:14:04;7.50;;;3.05;;
29824;SDS011;16713;52.916;12.834;2022-07-29T06:16:30;5.72;;;3.47;;
29824;SDS011;16713;52.916;12.834;2022-07-29T06:18:57;8.75;;;3.13;;
29824;SDS011;16713;52.916;12.834;2022-07-29T06:21:23;7.55;;;3.55;;
29824;SDS011;16713;52.916;12.834;2022-07-29T06:23:50;3.47;;;2.97;;
29824;SDS011;16713;52.916;12.834;2022-07-29T06:26:16;10.13;;;3.15;;
29824;SDS011;16713;52.916;12.834;2022-07-29T06:28:43;5.40;;;3.03;;
29824;SDS011;16713;52.916;12.834;2022-07-29T06:31:11;8.27;;;2.92;;
29824;SDS011;16713;52.916;12.834;2022-07-29T06:33:38;8.77;;;4.43;;
29824;SDS011;16713;52.916;12.834;2022-07-29T06:36:04;9.18;;;3.72;;
29824;SDS011;16713;52.916;12.834;2022-07-29T06:38:32;6.65;;;3.13;;
29824;SDS011;16713;52.916;12.834;2022-07-29T06:41:07;5.93;;;3.50;;
29824;SDS011;16713;52.916;12.834;2022-07-29T06:43:39;6.80;;;3.38;;
29824;SDS011;16713;52.916;12.834;2022-07-29T06:46:20;9.15;;;3.22;;
29824;SDS011;16713;52.916;12.834;2022-07-29T06:48:47;6.35;;;3.20;;
29824;SDS011;16713;52.916;12.834;2022-07-29T06:51:15;10.23;;;3.38;;
29824;SDS011;16713;52.916;12.834;2022-07-29T06:53:48;4.55;;;2.80;;
29824;SDS011;16713;52.916;12.834;2022-07-29T06:56:27;8.00;;;3.63;;
29824;SDS011;16713;52.916;12.834;2022-07-29T06:58:53;9.95;;;3.22;;
29824;SDS011;16713;52.916;12.834;2022-07-29T07:01:20;7.13;;;2.85;;
29824;SDS011;16713;52.916;12.834;2022-07-29T07:03:47;5.15;;;3.03;;
29824;SDS011;16713;52.916;12.834;2022-07-29T07:06:13;9.05;;;2.88;;
29824;SDS011;16713;52.916;12.834;2022-07-29T07:08:40;5.88;;;3.60;;
29824;SDS011;16713;52.916;12.834;2022-07-29T07:11:07;7.00;;;2.95;;
29824;SDS011;16713;52.916;12.834;2022-07-29T07:13:34;9.05;;;2.85;;
29824;SDS011;16713;52.916;12.834;2022-07-29T07:16:02;8.25;;;2.97;;
29824;SDS011;16713;52.916;12.834;2022-07-29T07:18:29;5.95;;;2.70;;
29824;SDS011;16713;52.916;12.834;2022-07-29T07:20:56;4.80;;;2.70;;
29824;SDS011;16713;52.916;12.834;2022-07-29T07:23:23;6.95;;;3.30;;
29824;SDS011;16713;52.916;12.834;2022-07-29T07:25:51;10.95;;;3.42;;
29824;SDS011;16713;52.916;12.834;2022-07-29T07:28:18;8.13;;;3.08;;
29824;SDS011;16713;52.916;12.834;2022-07-29T07:30:50;9.48;;;4.47;;
29824;SDS011;16713;52.916;12.834;2022-07-29T07:33:17;7.13;;;3.05;;
29824;SDS011;16713;52.916;12.834;2022-07-29T07:35:44;8.20;;;3.30;;
29824;SDS011;16713;52.916;12.834;2022-07-29T07:38:11;5.40;;;2.58;;
29824;SDS011;16713;52.916;12.834;2022-07-29T07:40:37;10.50;;;2.80;;
29824;SDS011;16713;52.916;12.834;2022-07-29T07:43:04;9.88;;;2.92;;
29824;SDS011;16713;52.916;12.834;2022-07-29T07:45:31;12.60;;;6.65;;
29824;SDS011;16713;52.916;12.834;2022-07-29T07:47:59;14.63;;;4.80;;
29824;SDS011;16713;52.916;12.834;2022-07-29T07:50:26;6.50;;;2.53;;
29824;SDS011;16713;52.916;12.834;2022-07-29T07:52:53;5.68;;;2.45;;
29824;SDS011;16713;52.916;12.834;2022-07-29T07:55:24;8.15;;;2.45;;
29824;SDS011;16713;52.916;12.834;2022-07-29T07:57:52;9.10;;;2.55;;
29824;SDS011;16713;52.916;12.834;2022-07-29T08:00:19;5.57;;;2.88;;
29824;SDS011;16713;52.916;12.834;2022-07-29T08:02:48;3.42;;;2.65;;
29824;SDS011;16713;52.916;12.834;2022-07-29T08:05:16;4.40;;;2.28;;
29824;SDS011;16713;52.916;12.834;2022-07-29T08:07:46;8.93;;;3.67;;
29824;SDS011;16713;52.916;12.834;2022-07-29T08:10:13;7.70;;;2.40;;
29824;SDS011;16713;52.916;12.834;2022-07-29T08:13:11;8.20;;;2.65;;
29824;SDS011;16713;52.916;12.834;2022-07-29T08:15:38;8.98;;;3.05;;
29824;SDS011;16713;52.916;12.834;2022-07-29T08:18:05;11.75;;;3.45;;
29824;SDS011;16713;52.916;12.834;2022-07-29T08:20:34;7.47;;;2.60;;
29824;SDS011;16713;52.916;12.834;2022-07-29T08:23:02;6.40;;;2.53;;
29824;SDS011;16713;52.916;12.834;2022-07-29T08:25:29;6.22;;;2.80;;
29824;SDS011;16713;52.916;12.834;2022-07-29T08:27:55;9.10;;;2.38;;
29824;SDS011;16713;52.916;12.834;2022-07-29T08:30:22;8.55;;;2.08;;
29824;SDS011;16713;52.916;12.834;2022-07-29T08:32:49;3.78;;;2.17;;
29824;SDS011;16713;52.916;12.834;2022-07-29T08:35:21;6.05;;;2.25;;
29824;SDS011;16713;52.916;12.834;2022-07-29T08:37:48;7.70;;;3.15;;
29824;SDS011;16713;52.916;12.834;2022-07-29T08:40:15;5.03;;;2.33;;
29824;SDS011;16713;52.916;12.834;2022-07-29T08:42:41;8.18;;;3.38;;
29824;SDS011;16713;52.916;12.834;2022-07-29T08:45:08;5.43;;;2.67;;
29824;SDS011;16713;52.916;12.834;2022-07-29T08:47:35;7.13;;;3.88;;
29824;SDS011;16713;52.916;12.834;2022-07-29T08:50:06;4.97;;;2.35;;
29824;SDS011;16713;52.916;12.834;2022-07-29T08:52:35;5.88;;;2.38;;
29824;SDS011;16713;52.916;12.834;2022-07-29T08:55:04;4.40;;;2.20;;
29824;SDS011;16713;52.916;12.834;2022-07-29T08:57:32;4.53;;;2.25;;
29824;SDS011;16713;52.916;12.834;2022-07-29T09:00:04;7.60;;;4.72;;
29824;SDS011;16713;52.916;12.834;2022-07-29T09:02:39;8.93;;;2.22;;
29824;SDS011;16713;52.916;12.834;2022-07-29T09:05:11;4.13;;;2.15;;
29824;SDS011;16713;52.916;12.834;2022-07-29T09:07:38;9.13;;;2.55;;
29824;SDS011;16713;52.916;12.834;2022-07-29T09:10:06;5.05;;;2.28;;
29824;SDS011;16713;52.916;12.834;2022-07-29T09:12:33;5.60;;;2.00;;
29824;SDS011;16713;52.916;12.834;2022-07-29T09:15:03;4.32;;;2.20;;
29824;SDS011;16713;52.916;12.834;2022-07-29T09:17:39;5.28;;;2.13;;
29824;SDS011;16713;52.916;12.834;2022-07-29T09:20:08;3.15;;;2.22;;
29824;SDS011;16713;52.916;12.834;2022-07-29T09:22:36;4.32;;;2.20;;
29824;SDS011;16713;52.916;12.834;2022-07-29T09:25:07;3.95;;;2.25;;
29824;SDS011;16713;52.916;12.834;2022-07-29T09:27:34;8.02;;;4.18;;
29824;SDS011;16713;52.916;12.834;2022-07-29T09:30:03;9.32;;;2.47;;
29824;SDS011;16713;52.916;12.834;2022-07-29T09:32:32;7.38;;;2.70;;
29824;SDS011;16713;52.916;12.834;2022-07-29T09:35:19;3.60;;;2.00;;
29824;SDS011;16713;52.916;12.834;2022-07-29T09:37:47;4.63;;;2.50;;
29824;SDS011;16713;52.916;12.834;2022-07-29T09:40:18;7.05;;;2.20;;
29824;SDS011;16713;52.916;12.834;2022-07-29T09:42:47;7.15;;;2.88;;
29824;SDS011;16713;52.916;12.834;2022-07-29T09:45:25;5.85;;;2.13;;
29824;SDS011;16713;52.916;12.834;2022-07-29T09:47:53;4.13;;;2.47;;
29824;SDS011;16713;52.916;12.834;2022-07-29T09:50:21;6.68;;;2.15;;
29824;SDS011;16713;52.916;12.834;2022-07-29T09:52:52;5.65;;;1.77;;
29824;SDS011;16713;52.916;12.834;2022-07-29T09:55:19;7.90;;;1.77;;
29824;SDS011;16713;52.916;12.834;2022-07-29T09:57:46;6.30;;;1.85;;
29824;SDS011;16713;52.916;12.834;2022-07-29T10:00:14;5.32;;;1.90;;
29824;SDS011;16713;52.916;12.834;2022-07-29T10:02:44;4.70;;;2.10;;
29824;SDS011;16713;52.916;12.834;2022-07-29T10:05:22;3.15;;;1.45;;
29824;SDS011;16713;52.916;12.834;2022-07-29T10:07:51;3.53;;;2.05;;
29824;SDS011;16713;52.916;12.834;2022-07-29T10:10:26;6.57;;;1.95;;
29824;SDS011;16713;52.916;12.834;2022-07-29T10:12:57;4.65;;;1.70;;
29824;SDS011;16713;52.916;12.834;2022-07-29T10:15:34;7.10;;;2.03;;
29824;SDS011;16713;52.916;12.834;2022-07-29T10:18:05;3.45;;;2.28;;
29824;SDS011;16713;52.916;12.834;2022-07-29T10:20:33;4.55;;;1.90;;
29824;SDS011;16713;52.916;12.834;2022-07-29T10:23:00;5.90;;;1.52;;
29824;SDS011;16713;52.916;12.834;2022-07-29T10:25:26;4.82;;;1.50;;
29824;SDS011;16713;52.916;12.834;2022-07-29T10:27:53;3.72;;;1.90;;
29824;SDS011;16713;52.916;12.834;2022-07-29T10:30:21;4.85;;;2.42;;
29824;SDS011;16713;52.916;12.834;2022-07-29T10:38:45;6.88;;;2.22;;
29824;SDS011;16713;52.916;12.834;2022-07-29T10:44:01;5.20;;;1.30;;
29824;SDS011;16713;52.916;12.834;2022-07-29T10:46:35;4.53;;;1.50;;
29824;SDS011;16713;52.916;12.834;2022-07-29T10:49:04;4.45;;;1.48;;
29824;SDS011;16713;52.916;12.834;2022-07-29T10:56:43;5.38;;;1.25;;
29824;SDS011;16713;52.916;12.834;2022-07-29T11:01:47;3.25;;;1.70;;
29824;SDS011;16713;52.916;12.834;2022-07-29T11:07:10;7.03;;;1.73;;
29824;SDS011;16713;52.916;12.834;2022-07-29T11:15:22;4.93;;;2.90;;
29824;SDS011;16713;52.916;12.834;2022-07-29T11:28:51;3.65;;;1.88;;
29824;SDS011;16713;52.916;12.834;2022-07-29T11:48:15;7.45;;;3.83;;
29824;SDS011;16713;52.916;12.834;2022-07-29T11:50:57;9.02;;;2.25;;
29824;SDS011;16713;52.916;12.834;2022-07-29T11:53:24;7.60;;;2.08;;
29824;SDS011;16713;52.916;12.834;2022-07-29T11:55:58;4.15;;;1.80;;
29824;SDS011;16713;52.916;12.834;2022-07-29T11:58:25;4.45;;;1.70;;
29824;SDS011;16713;52.916;12.834;2022-07-29T12:00:52;5.72;;;2.05;;
29824;SDS011;16713;52.916;12.834;2022-07-29T12:03:39;5.97;;;2.10;;
29824;SDS011;16713;52.916;12.834;2022-07-29T12:06:12;8.13;;;2.30;;
29824;SDS011;16713;52.916;12.834;2022-07-29T12:08:43;3.22;;;1.33;;
29824;SDS011;16713;52.916;12.834;2022-07-29T12:11:16;5.03;;;1.40;;
29824;SDS011;16713;52.916;12.834;2022-07-29T12:13:47;3.30;;;1.80;;
29824;SDS011;16713;52.916;12.834;2022-07-29T12:16:14;3.88;;;1.95;;
29824;SDS011;16713;52.916;12.834;2022-07-29T12:18:59;4.40;;;1.65;;
29824;SDS011;16713;52.916;12.834;2022-07-29T12:21:28;2.35;;;1.50;;
29824;SDS011;16713;52.916;12.834;2022-07-29T12:23:56;5.60;;;1.92;;
29824;SDS011;16713;52.916;12.834;2022-07-29T12:26:32;2.53;;;1.75;;
29824;SDS011;16713;52.916;12.834;2022-07-29T12:29:00;6.38;;;1.98;;
29824;SDS011;16713;52.916;12.834;2022-07-29T12:31:28;8.10;;;1.90;;
29824;SDS011;16713;52.916;12.834;2022-07-29T12:34:10;6.97;;;1.50;;
29824;SDS011;16713;52.916;12.834;2022-07-29T12:36:38;3.47;;;1.58;;
29824;SDS011;16713;52.916;12.834;2022-07-29T12:39:05;3.30;;;1.35;;
29824;SDS011;16713;52.916;12.834;2022-07-29T12:41:32;6.20;;;2.10;;
29824;SDS011;16713;52.916;12.834;2022-07-29T12:43:58;3.47;;;1.60;;
29824;SDS011;16713;52.916;12.834;2022-07-29T12:46:25;4.68;;;1.60;;
29824;SDS011;16713;52.916;12.834;2022-07-29T12:48:52;4.43;;;1.75;;
29824;SDS011;16713;52.916;12.834;2022-07-29T12:51:30;2.92;;;1.35;;
29824;SDS011;16713;52.916;12.834;2022-07-29T12:54:01;5.03;;;1.75;;
29824;SDS011;16713;52.916;12.834;2022-07-29T12:56:31;4.35;;;1.75;;
29824;SDS011;16713;52.916;12.834;2022-07-29T13:01:39;3.40;;;1.50;;
29824;SDS011;16713;52.916;12.834;2022-07-29T13:04:05;8.82;;;2.30;;
29824;SDS011;16713;52.916;12.834;2022-07-29T13:09:15;5.80;;;1.92;;
29824;SDS011;16713;52.916;12.834;2022-07-29T13:11:48;6.80;;;1.70;;
29824;SDS011;16713;52.916;12.834;2022-07-29T13:19:40;6.00;;;1.90;;
29824;SDS011;16713;52.916;12.834;2022-07-29T13:22:17;5.60;;;1.83;;
29824;SDS011;16713;52.916;12.834;2022-07-29T13:24:54;6.45;;;2.10;;
29824;SDS011;16713;52.916;12.834;2022-07-29T13:27:26;2.63;;;1.63;;
29824;SDS011;16713;52.916;12.834;2022-07-29T13:29:54;5.63;;;2.20;;
29824;SDS011;16713;52.916;12.834;2022-07-29T13:32:24;4.15;;;2.08;;
29824;SDS011;16713;52.916;12.834;2022-07-29T13:34:54;3.38;;;1.90;;
29824;SDS011;16713;52.916;12.834;2022-07-29T13:37:22;2.97;;;1.45;;
29824;SDS011;16713;52.916;12.834;2022-07-29T13:39:48;4.32;;;1.60;;
29824;SDS011;16713;52.916;12.834;2022-07-29T13:42:18;3.33;;;2.00;;
29824;SDS011;16713;52.916;12.834;2022-07-29T13:44:45;7.35;;;2.15;;
29824;SDS011;16713;52.916;12.834;2022-07-29T13:47:11;4.35;;;2.13;;
29824;SDS011;16713;52.916;12.834;2022-07-29T13:49:38;5.97;;;2.20;;
29824;SDS011;16713;52.916;12.834;2022-07-29T13:52:05;3.65;;;2.10;;
29824;SDS011;16713;52.916;12.834;2022-07-29T13:54:33;4.35;;;2.00;;
29824;SDS011;16713;52.916;12.834;2022-07-29T13:57:07;4.13;;;1.80;;
29824;SDS011;16713;52.916;12.834;2022-07-29T13:59:36;1.67;;;1.08;;
29824;SDS011;16713;52.916;12.834;2022-07-29T14:02:03;7.63;;;2.38;;
29824;SDS011;16713;52.916;12.834;2022-07-29T14:04:31;2.75;;;1.73;;
29824;SDS011;16713;52.916;12.834;2022-07-29T14:06:58;5.43;;;1.50;;
29824;SDS011;16713;52.916;12.834;2022-07-29T14:09:28;3.35;;;1.95;;
29824;SDS011;16713;52.916;12.834;2022-07-29T14:12:06;3.38;;;1.80;;
29824;SDS011;16713;52.916;12.834;2022-07-29T14:14:33;2.92;;;1.60;;
29824;SDS011;16713;52.916;12.834;2022-07-29T14:17:01;4.32;;;2.00;;
29824;SDS011;16713;52.916;12.834;2022-07-29T14:19:29;2.00;;;1.55;;
29824;SDS011;16713;52.916;12.834;2022-07-29T14:21:57;2.58;;;1.90;;
29824;SDS011;16713;52.916;12.834;2022-07-29T14:24:25;3.83;;;2.13;;
29824;SDS011;16713;52.916;12.834;2022-07-29T14:26:51;3.30;;;1.90;;
29824;SDS011;16713;52.916;12.834;2022-07-29T14:29:18;3.22;;;2.08;;
29824;SDS011;16713;52.916;12.834;2022-07-29T14:31:44;3.95;;;2.00;;
29824;SDS011;16713;52.916;12.834;2022-07-29T14:34:11;2.53;;;2.08;;
29824;SDS011;16713;52.916;12.834;2022-07-29T14:36:37;7.90;;;2.10;;
29824;SDS011;16713;52.916;12.834;2022-07-29T14:39:04;3.75;;;1.80;;
29824;SDS011;16713;52.916;12.834;2022-07-29T14:41:30;2.65;;;2.10;;
29824;SDS011;16713;52.916;12.834;2022-07-29T14:43:57;4.25;;;1.98;;
29824;SDS011;16713;52.916;12.834;2022-07-29T14:46:26;3.17;;;2.20;;
29824;SDS011;16713;52.916;12.834;2022-07-29T14:48:53;6.10;;;2.33;;
29824;SDS011;16713;52.916;12.834;2022-07-29T14:51:20;5.53;;;1.90;;
29824;SDS011;16713;52.916;12.834;2022-07-29T14:53:47;8.57;;;3.47;;
29824;SDS011;16713;52.916;12.834;2022-07-29T14:56:13;1.98;;;1.77;;
29824;SDS011;16713;52.916;12.834;2022-07-29T14:59:00;3.33;;;2.05;;
29824;SDS011;16713;52.916;12.834;2022-07-29T15:01:26;9.23;;;4.78;;
29824;SDS011;16713;52.916;12.834;2022-07-29T15:03:53;5.13;;;2.00;;
29824;SDS011;16713;52.916;12.834;2022-07-29T15:06:25;5.45;;;2.30;;
29824;SDS011;16713;52.916;12.834;2022-07-29T15:08:52;2.80;;;2.13;;
29824;SDS011;16713;52.916;12.834;2022-07-29T15:11:18;5.32;;;2.30;;
29824;SDS011;16713;52.916;12.834;2022-07-29T15:13:45;6.20;;;2.17;;
29824;SDS011;16713;52.916;12.834;2022-07-29T15:16:11;5.10;;;2.47;;
29824;SDS011;16713;52.916;12.834;2022-07-29T15:18:38;4.10;;;1.92;;
29824;SDS011;16713;52.916;12.834;2022-07-29T15:21:04;5.53;;;2.10;;
29824;SDS011;16713;52.916;12.834;2022-07-29T15:23:33;3.58;;;2.40;;
29824;SDS011;16713;52.916;12.834;2022-07-29T15:26:02;3.40;;;2.30;;
29824;SDS011;16713;52.916;12.834;2022-07-29T15:28:29;7.18;;;2.47;;
29824;SDS011;16713;52.916;12.834;2022-07-29T15:30:56;6.60;;;2.13;;
29824;SDS011;16713;52.916;12.834;2022-07-29T15:33:22;4.63;;;2.30;;
29824;SDS011;16713;52.916;12.834;2022-07-29T15:35:49;4.47;;;2.47;;
29824;SDS011;16713;52.916;12.834;2022-07-29T15:38:16;2.65;;;2.17;;
29824;SDS011;16713;52.916;12.834;2022-07-29T15:40:42;6.65;;;1.90;;
29824;SDS011;16713;52.916;12.834;2022-07-29T15:43:10;4.32;;;2.28;;
29824;SDS011;16713;52.916;12.834;2022-07-29T15:45:39;5.20;;;2.50;;
29824;SDS011;16713;52.916;12.834;2022-07-29T15:48:07;5.47;;;2.33;;
29824;SDS011;16713;52.916;12.834;2022-07-29T15:50:39;4.95;;;2.30;;
29824;SDS011;16713;52.916;12.834;2022-07-29T15:53:06;4.90;;;2.05;;
29824;SDS011;16713;52.916;12.834;2022-07-29T15:55:32;4.65;;;2.40;;
29824;SDS011;16713;52.916;12.834;2022-07-29T15:57:59;5.55;;;2.53;;
29824;SDS011;16713;52.916;12.834;2022-07-29T16:00:26;4.90;;;2.50;;
29824;SDS011;16713;52.916;12.834;2022-07-29T16:02:53;4.25;;;2.17;;
29824;SDS011;16713;52.916;12.834;2022-07-29T16:05:19;2.47;;;2.20;;
29824;SDS011;16713;52.916;12.834;2022-07-29T16:07:46;4.85;;;2.40;;
29824;SDS011;16713;52.916;12.834;2022-07-29T16:10:12;6.50;;;2.70;;
29824;SDS011;16713;52.916;12.834;2022-07-29T16:12:39;5.50;;;2.35;;